Time;durP1;ratioP1;P1;durP2;ratioP2;P2;SDS_P1;SDS_P2;PMS_P1;PMS_P2;Temp;Humidity;BMP_temperature;BMP_pressure;BME280_temperature;BME280_humidity;BME280_pressure;Samples;Min_cycle;Max_cycle;Signal;HPM_P1;HPM_P2
2022/01/21 00:01:48;;;;;;;8.07;3.08;;;;;;;;;;5047828;28;20032;-58
2022/01/21 00:04:15;;;;;;;7.85;3.25;;;;;;;;;;5028881;28;20033;-59
2022/01/21 00:06:41;;;;;;;8.05;3.55;;;;;;;;;;5027616;28;20026;-58
2022/01/21 00:09:08;;;;;;;5.13;2.58;;;;;;;;;;5027368;28;20052;-58
2022/01/21 00:11:36;;;;;;;8.52;3.10;;;;;;;;;;5027728;28;20064;-58
2022/01/21 00:14:02;;;;;;;6.10;2.60;;;;;;;;;;5027127;28;20025;-59
2022/01/21 00:16:29;;;;;;;4.07;2.25;;;;;;;;;;5028152;28;20026;-58
2022/01/21 00:19:04;;;;;;;5.60;2.13;;;;;;;;;;5026960;28;20030;-58
2022/01/21 00:32:49;;;;;;;4.43;1.95;;;;;;;;;;5003649;28;20041;-58
2022/01/21 00:35:17;;;;;;;3.28;2.13;;;;;;;;;;5021650;28;20053;-58
2022/01/21 00:37:44;;;;;;;5.35;2.13;;;;;;;;;;5026807;28;20025;-58
2022/01/21 00:40:14;;;;;;;3.83;1.95;;;;;;;;;;5026747;28;20022;-58
2022/01/21 00:45:11;;;;;;;5.07;1.92;;;;;;;;;;5046063;28;20029;-58
2022/01/21 00:47:38;;;;;;;4.35;1.50;;;;;;;;;;5046329;28;20048;-58
2022/01/21 00:50:05;;;;;;;2.80;1.50;;;;;;;;;;5046695;28;20029;-58
2022/01/21 00:52:31;;;;;;;5.38;2.17;;;;;;;;;;5045636;28;20120;-58
2022/01/21 00:54:58;;;;;;;5.10;2.15;;;;;;;;;;5045221;28;20016;-59
2022/01/21 00:57:24;;;;;;;4.55;2.22;;;;;;;;;;5038247;28;20338;-58
2022/01/21 00:59:50;;;;;;;4.80;2.05;;;;;;;;;;5025905;28;20428;-58
2022/01/21 01:02:17;;;;;;;3.58;1.77;;;;;;;;;;5026432;28;20032;-58
2022/01/21 01:04:44;;;;;;;3.53;1.70;;;;;;;;;;5026676;28;20025;-57
2022/01/21 01:07:10;;;;;;;2.28;1.60;;;;;;;;;;5026701;28;20577;-58
2022/01/21 01:09:36;;;;;;;3.17;1.50;;;;;;;;;;5026375;28;20112;-58
2022/01/21 01:20:03;;;;;;;6.40;2.13;;;;;;;;;;5026315;28;20032;-58
2022/01/21 01:28:04;;;;;;;3.55;1.80;;;;;;;;;;5045986;28;20035;-58
2022/01/21 01:30:33;;;;;;;5.97;1.85;;;;;;;;;;5046095;28;20029;-58
2022/01/21 01:33:00;;;;;;;3.67;1.63;;;;;;;;;;5046231;28;20037;-58
2022/01/21 01:35:31;;;;;;;4.43;1.85;;;;;;;;;;5040963;28;20025;-58
2022/01/21 01:40:55;;;;;;;3.90;1.98;;;;;;;;;;5046113;28;20044;-58
2022/01/21 01:51:28;;;;;;;2.78;1.65;;;;;;;;;;5026372;28;20037;-58
2022/01/21 01:54:06;;;;;;;3.65;1.80;;;;;;;;;;5025110;28;20065;-58
2022/01/21 01:56:36;;;;;;;2.67;1.50;;;;;;;;;;5025983;28;20032;-58
2022/01/21 01:59:04;;;;;;;5.55;1.95;;;;;;;;;;5040338;28;20417;-58
2022/01/21 02:01:31;;;;;;;4.28;2.20;;;;;;;;;;5026034;28;20467;-58
2022/01/21 02:03:57;;;;;;;5.20;2.20;;;;;;;;;;5025594;28;20680;-58
2022/01/21 02:06:23;;;;;;;6.05;2.40;;;;;;;;;;5025683;28;20459;-58
2022/01/21 02:08:49;;;;;;;5.15;2.42;;;;;;;;;;5025327;28;20064;-58
2022/01/21 02:11:16;;;;;;;5.38;2.38;;;;;;;;;;5025904;28;20112;-58
2022/01/21 02:13:46;;;;;;;5.22;2.38;;;;;;;;;;5025446;28;20491;-57
2022/01/21 02:21:47;;;;;;;4.55;2.20;;;;;;;;;;5033979;28;20040;-56
2022/01/21 02:24:20;;;;;;;5.88;2.40;;;;;;;;;;5034607;28;20055;-55
2022/01/21 02:26:47;;;;;;;5.00;2.00;;;;;;;;;;5026232;28;20109;-56
2022/01/21 02:29:16;;;;;;;3.17;1.90;;;;;;;;;;5025623;28;20032;-57
2022/01/21 02:31:43;;;;;;;3.60;2.00;;;;;;;;;;5025978;28;20033;-57
2022/01/21 02:34:10;;;;;;;3.10;1.92;;;;;;;;;;5025370;28;20972;-57
2022/01/21 02:36:37;;;;;;;3.42;1.80;;;;;;;;;;5026075;28;20018;-56
2022/01/21 02:39:05;;;;;;;4.07;1.63;;;;;;;;;;5025673;28;20551;-56
2022/01/21 02:41:32;;;;;;;3.50;1.95;;;;;;;;;;5025804;28;20031;-57
2022/01/21 02:43:59;;;;;;;2.70;1.63;;;;;;;;;;5025736;28;20037;-57
2022/01/21 02:46:26;;;;;;;3.47;1.63;;;;;;;;;;5038226;28;20123;-56
2022/01/21 02:48:52;;;;;;;2.38;1.50;;;;;;;;;;5045712;28;20035;-55
2022/01/21 02:51:19;;;;;;;2.58;1.50;;;;;;;;;;5045890;28;20078;-56
2022/01/21 02:56:14;;;;;;;2.90;1.58;;;;;;;;;;5025445;28;20022;-56
2022/01/21 02:58:40;;;;;;;6.47;2.10;;;;;;;;;;5041893;28;20540;-56
2022/01/21 03:01:08;;;;;;;3.08;1.70;;;;;;;;;;5029023;28;20060;-56
2022/01/21 03:03:35;;;;;;;2.55;1.70;;;;;;;;;;5028991;28;20073;-56
2022/01/21 03:06:01;;;;;;;5.05;1.73;;;;;;;;;;5029376;28;20053;-56
2022/01/21 03:08:29;;;;;;;5.70;1.55;;;;;;;;;;5029446;28;20037;-56
2022/01/21 03:10:56;;;;;;;3.00;1.77;;;;;;;;;;5037084;28;20029;-56
2022/01/21 03:13:23;;;;;;;4.10;2.03;;;;;;;;;;5047659;28;20036;-57
2022/01/21 03:15:50;;;;;;;2.28;1.55;;;;;;;;;;5039230;28;20041;-56
2022/01/21 03:18:16;;;;;;;3.85;1.40;;;;;;;;;;5047334;28;20025;-56
2022/01/21 03:20:43;;;;;;;4.90;1.92;;;;;;;;;;5047308;28;20020;-56
2022/01/21 03:23:17;;;;;;;2.75;1.40;;;;;;;;;;5046942;28;20417;-57
2022/01/21 03:25:47;;;;;;;3.92;1.65;;;;;;;;;;5027847;28;20021;-56
2022/01/21 03:28:14;;;;;;;3.72;1.80;;;;;;;;;;5027171;28;20025;-56
2022/01/21 03:30:42;;;;;;;1.85;1.38;;;;;;;;;;5027035;28;20037;-55
2022/01/21 03:33:08;;;;;;;4.10;2.15;;;;;;;;;;5027120;28;20029;-56
2022/01/21 03:35:34;;;;;;;2.67;1.40;;;;;;;;;;5027920;28;20144;-57
2022/01/21 03:38:00;;;;;;;2.55;1.50;;;;;;;;;;5026766;28;20136;-56
2022/01/21 03:40:26;;;;;;;5.43;2.13;;;;;;;;;;5026856;28;20160;-56
2022/01/21 03:42:53;;;;;;;3.22;1.70;;;;;;;;;;5026863;28;20064;-56
2022/01/21 03:45:20;;;;;;;4.53;1.60;;;;;;;;;;5026431;28;20029;-57
2022/01/21 03:47:46;;;;;;;4.90;1.70;;;;;;;;;;5027143;28;20057;-57
2022/01/21 03:50:22;;;;;;;4.03;1.65;;;;;;;;;;5026537;28;20064;-56
2022/01/21 03:52:49;;;;;;;3.95;1.80;;;;;;;;;;5026401;28;20025;-56
2022/01/21 03:55:15;;;;;;;4.18;1.52;;;;;;;;;;5029588;28;20412;-56
2022/01/21 03:57:41;;;;;;;4.25;1.73;;;;;;;;;;5027000;28;20032;-57
2022/01/21 04:00:08;;;;;;;3.45;1.70;;;;;;;;;;5026650;28;20422;-56
2022/01/21 04:02:35;;;;;;;4.35;1.50;;;;;;;;;;5027406;28;20034;-56
2022/01/21 04:05:02;;;;;;;2.70;1.55;;;;;;;;;;5026360;28;20087;-56
2022/01/21 04:07:28;;;;;;;3.40;1.77;;;;;;;;;;5044648;28;20523;-56
2022/01/21 04:09:55;;;;;;;3.55;1.80;;;;;;;;;;5045411;28;20104;-57
2022/01/21 04:12:22;;;;;;;5.20;1.90;;;;;;;;;;5044522;28;20496;-56
2022/01/21 04:14:50;;;;;;;3.45;1.73;;;;;;;;;;5046073;28;20029;-56
2022/01/21 04:17:18;;;;;;;3.08;1.98;;;;;;;;;;5046301;28;20025;-56
2022/01/21 04:19:45;;;;;;;4.10;1.98;;;;;;;;;;5042563;28;20020;-56
2022/01/21 04:22:12;;;;;;;3.88;1.80;;;;;;;;;;5026032;28;20382;-57
2022/01/21 04:24:40;;;;;;;4.13;1.92;;;;;;;;;;5026683;28;20053;-56
2022/01/21 04:27:07;;;;;;;4.80;1.98;;;;;;;;;;5026587;28;20060;-56
2022/01/21 04:29:33;;;;;;;3.80;2.08;;;;;;;;;;5025785;28;20100;-57
2022/01/21 04:31:59;;;;;;;3.05;1.80;;;;;;;;;;5026043;28;20564;-56
2022/01/21 04:34:25;;;;;;;4.45;2.05;;;;;;;;;;5038767;28;20029;-56
2022/01/21 04:36:51;;;;;;;5.93;2.40;;;;;;;;;;5035581;28;20033;-57
2022/01/21 04:39:24;;;;;;;4.13;2.00;;;;;;;;;;5025878;28;20453;-57
2022/01/21 04:47:18;;;;;;;5.30;1.90;;;;;;;;;;5025871;28;20052;-56
2022/01/21 04:49:48;;;;;;;3.55;1.95;;;;;;;;;;5025423;28;20033;-56
2022/01/21 04:52:15;;;;;;;5.55;2.17;;;;;;;;;;5025759;28;20041;-57
2022/01/21 04:54:42;;;;;;;6.35;2.33;;;;;;;;;;5025256;28;20427;-57
2022/01/21 04:57:09;;;;;;;6.35;2.22;;;;;;;;;;5026004;28;20037;-57
2022/01/21 04:59:37;;;;;;;6.78;2.42;;;;;;;;;;5025906;28;20415;-56
2022/01/21 05:02:03;;;;;;;4.28;2.30;;;;;;;;;;5024953;28;20361;-56
2022/01/21 05:04:30;;;;;;;5.32;2.50;;;;;;;;;;5025348;28;20041;-57
2022/01/21 05:06:56;;;;;;;4.70;2.38;;;;;;;;;;5025106;28;20412;-57
2022/01/21 05:09:29;;;;;;;4.82;2.25;;;;;;;;;;5034704;28;20056;-57
2022/01/21 05:11:56;;;;;;;5.72;2.42;;;;;;;;;;5028499;28;20064;-56
2022/01/21 05:14:27;;;;;;;5.53;2.30;;;;;;;;;;5069533;28;20030;-56
2022/01/21 05:17:01;;;;;;;5.30;2.10;;;;;;;;;;5057259;28;20027;-57
2022/01/21 05:19:27;;;;;;;3.75;1.92;;;;;;;;;;5060073;28;20039;-57
2022/01/21 05:21:53;;;;;;;5.22;2.42;;;;;;;;;;5065974;28;20029;-57
2022/01/21 05:24:20;;;;;;;3.72;1.83;;;;;;;;;;5047279;28;20064;-57
2022/01/21 05:26:53;;;;;;;3.55;1.67;;;;;;;;;;5045636;28;20084;-57
2022/01/21 05:29:20;;;;;;;5.43;2.08;;;;;;;;;;5046952;28;20032;-56
2022/01/21 05:31:47;;;;;;;2.92;1.65;;;;;;;;;;5045226;28;20029;-56
2022/01/21 05:34:14;;;;;;;4.13;1.60;;;;;;;;;;5045437;28;20448;-57
2022/01/21 05:36:41;;;;;;;2.97;1.70;;;;;;;;;;5042937;28;20528;-57
2022/01/21 05:39:07;;;;;;;3.00;1.50;;;;;;;;;;5045950;28;20136;-54
2022/01/21 05:41:34;;;;;;;4.85;1.67;;;;;;;;;;5045925;28;20028;-55
2022/01/21 05:44:04;;;;;;;2.38;1.40;;;;;;;;;;5045675;28;20123;-54
2022/01/21 05:49:15;;;;;;;4.85;1.60;;;;;;;;;;5028516;28;20048;-54
2022/01/21 05:51:42;;;;;;;3.28;1.65;;;;;;;;;;5041280;28;20079;-55
2022/01/21 05:54:09;;;;;;;2.28;1.55;;;;;;;;;;5043860;28;20035;-55
2022/01/21 05:56:37;;;;;;;2.92;1.70;;;;;;;;;;5045787;28;20092;-55
2022/01/21 05:59:03;;;;;;;5.35;1.83;;;;;;;;;;5045705;28;20035;-55
2022/01/21 06:01:29;;;;;;;2.20;1.48;;;;;;;;;;5046009;28;20412;-55
2022/01/21 06:03:55;;;;;;;3.15;1.60;;;;;;;;;;5045648;28;20040;-55
2022/01/21 06:06:22;;;;;;;2.17;1.30;;;;;;;;;;5044654;28;20064;-55
2022/01/21 06:08:48;;;;;;;3.03;1.70;;;;;;;;;;5045864;28;20033;-54
2022/01/21 06:11:14;;;;;;;3.05;1.55;;;;;;;;;;5046064;28;20036;-57
2022/01/21 06:13:40;;;;;;;4.30;1.80;;;;;;;;;;5045744;28;20029;-57
2022/01/21 06:16:06;;;;;;;4.25;1.60;;;;;;;;;;5028158;28;20126;-57
2022/01/21 06:18:32;;;;;;;2.80;1.65;;;;;;;;;;5026062;28;20034;-56
2022/01/21 06:20:59;;;;;;;3.38;1.90;;;;;;;;;;5032462;28;20032;-56
2022/01/21 06:23:26;;;;;;;5.35;1.67;;;;;;;;;;5042342;28;20028;-56
2022/01/21 06:25:53;;;;;;;3.47;1.70;;;;;;;;;;5037749;28;20412;-56
2022/01/21 06:28:20;;;;;;;4.50;1.63;;;;;;;;;;5044981;28;20036;-56
2022/01/21 06:30:49;;;;;;;3.08;1.75;;;;;;;;;;5044421;28;20026;-57
2022/01/21 06:33:15;;;;;;;5.38;1.83;;;;;;;;;;5042695;28;20037;-56
2022/01/21 06:35:41;;;;;;;4.05;2.05;;;;;;;;;;5045165;28;20082;-56
2022/01/21 06:38:08;;;;;;;6.15;2.67;;;;;;;;;;5042742;28;20132;-55
2022/01/21 06:40:35;;;;;;;6.57;2.30;;;;;;;;;;5044707;28;20036;-57
2022/01/21 06:43:03;;;;;;;4.03;1.80;;;;;;;;;;5037064;28;20466;-57
2022/01/21 06:45:29;;;;;;;3.00;1.70;;;;;;;;;;5032294;28;20022;-56
2022/01/21 06:47:58;;;;;;;4.63;1.75;;;;;;;;;;5027467;28;20041;-55
2022/01/21 06:50:24;;;;;;;3.25;2.00;;;;;;;;;;5028315;28;20071;-57
2022/01/21 06:52:50;;;;;;;7.10;2.72;;;;;;;;;;5046406;28;20032;-57
2022/01/21 06:55:16;;;;;;;5.82;2.22;;;;;;;;;;5069922;28;20020;-56
2022/01/21 06:57:42;;;;;;;5.35;2.50;;;;;;;;;;5039288;28;20064;-55
2022/01/21 07:00:10;;;;;;;4.05;2.20;;;;;;;;;;5047557;28;20025;-56
2022/01/21 07:02:36;;;;;;;5.10;2.08;;;;;;;;;;5048730;28;20032;-56
2022/01/21 07:05:02;;;;;;;3.40;2.20;;;;;;;;;;5048559;28;20029;-56
2022/01/21 07:07:28;;;;;;;4.13;2.10;;;;;;;;;;5035745;28;20029;-57
2022/01/21 07:09:55;;;;;;;5.15;2.55;;;;;;;;;;5045177;28;20025;-56
2022/01/21 07:12:21;;;;;;;3.20;2.20;;;;;;;;;;5047421;28;20060;-56
2022/01/21 07:14:47;;;;;;;4.65;2.05;;;;;;;;;;5047882;28;20191;-55
2022/01/21 07:17:13;;;;;;;5.30;2.60;;;;;;;;;;5041925;28;20025;-56
2022/01/21 07:19:39;;;;;;;3.30;2.10;;;;;;;;;;5048469;28;20094;-56
2022/01/21 07:22:06;;;;;;;4.70;2.50;;;;;;;;;;5036763;28;20037;-55
2022/01/21 07:24:33;;;;;;;5.78;2.50;;;;;;;;;;5044145;28;20584;-56
2022/01/21 07:26:59;;;;;;;5.35;2.10;;;;;;;;;;5029286;28;20061;-56
2022/01/21 07:29:26;;;;;;;6.70;2.80;;;;;;;;;;5048017;28;20067;-55
2022/01/21 07:31:54;;;;;;;9.23;2.60;;;;;;;;;;5047365;28;20036;-56
2022/01/21 07:34:21;;;;;;;6.32;2.85;;;;;;;;;;5045997;28;20463;-55
2022/01/21 07:36:48;;;;;;;8.60;3.55;;;;;;;;;;5041121;28;20061;-55
2022/01/21 07:39:16;;;;;;;6.22;2.90;;;;;;;;;;5048332;28;20021;-56
2022/01/21 07:41:42;;;;;;;10.18;3.15;;;;;;;;;;5048080;28;20025;-56
2022/01/21 07:44:09;;;;;;;7.63;3.58;;;;;;;;;;5039154;28;20359;-55
2022/01/21 07:46:36;;;;;;;6.28;3.42;;;;;;;;;;5040149;28;20033;-56
2022/01/21 07:49:03;;;;;;;7.50;2.97;;;;;;;;;;5035201;28;20029;-55
2022/01/21 07:51:29;;;;;;;6.43;3.13;;;;;;;;;;5028069;28;20063;-55
2022/01/21 07:53:56;;;;;;;7.30;2.78;;;;;;;;;;5032284;28;20425;-56
2022/01/21 07:56:23;;;;;;;7.47;2.90;;;;;;;;;;5048165;28;20493;-56
2022/01/21 07:58:50;;;;;;;5.32;2.70;;;;;;;;;;5046945;28;20032;-56
2022/01/21 08:01:16;;;;;;;5.25;2.47;;;;;;;;;;5037849;28;20060;-56
2022/01/21 08:03:42;;;;;;;5.85;3.10;;;;;;;;;;5048644;28;20091;-57
2022/01/21 08:06:08;;;;;;;6.57;2.30;;;;;;;;;;5048559;28;20403;-57
2022/01/21 08:08:34;;;;;;;6.60;2.75;;;;;;;;;;5044400;28;20033;-56
2022/01/21 08:11:00;;;;;;;8.95;2.80;;;;;;;;;;5044095;28;20033;-57
2022/01/21 08:13:27;;;;;;;4.35;2.70;;;;;;;;;;5047078;28;20488;-57
2022/01/21 08:15:53;;;;;;;6.28;2.72;;;;;;;;;;5048320;28;20029;-55
2022/01/21 08:18:20;;;;;;;4.43;3.00;;;;;;;;;;5048329;28;20458;-56
2022/01/21 08:20:46;;;;;;;6.05;2.92;;;;;;;;;;5048433;28;20048;-56
2022/01/21 08:23:12;;;;;;;4.75;2.97;;;;;;;;;;5047656;28;20062;-55
2022/01/21 08:25:38;;;;;;;5.95;2.53;;;;;;;;;;5048317;28;20037;-55
2022/01/21 08:28:05;;;;;;;4.18;2.40;;;;;;;;;;5048355;28;20054;-56
2022/01/21 08:30:31;;;;;;;7.35;2.63;;;;;;;;;;5048268;28;20126;-57
2022/01/21 08:32:57;;;;;;;5.07;2.60;;;;;;;;;;5047926;28;20025;-56
2022/01/21 08:35:23;;;;;;;4.80;2.20;;;;;;;;;;5046133;28;20029;-56
2022/01/21 08:37:52;;;;;;;3.92;2.58;;;;;;;;;;5044997;28;20052;-56
2022/01/21 08:40:18;;;;;;;3.45;2.63;;;;;;;;;;5054317;28;20030;-56
2022/01/21 08:42:44;;;;;;;7.32;3.30;;;;;;;;;;5029977;28;20034;-56
2022/01/21 08:45:12;;;;;;;6.57;2.63;;;;;;;;;;5032090;28;20036;-56
2022/01/21 08:47:40;;;;;;;6.70;2.88;;;;;;;;;;5046274;28;20033;-57
2022/01/21 08:50:09;;;;;;;7.07;2.72;;;;;;;;;;5045783;28;20080;-57
2022/01/21 08:52:38;;;;;;;5.15;2.70;;;;;;;;;;5046009;28;20104;-57
2022/01/21 08:55:11;;;;;;;3.95;2.78;;;;;;;;;;5047489;28;20052;-55
2022/01/21 08:57:39;;;;;;;4.63;2.60;;;;;;;;;;5045827;28;20381;-56
2022/01/21 09:00:09;;;;;;;7.45;2.92;;;;;;;;;;5047122;28;20115;-57
2022/01/21 09:02:36;;;;;;;5.68;2.80;;;;;;;;;;5047075;28;20021;-56
2022/01/21 09:05:02;;;;;;;5.20;2.85;;;;;;;;;;5044985;28;20312;-56
2022/01/21 09:07:28;;;;;;;5.57;3.08;;;;;;;;;;5044662;28;20458;-56
2022/01/21 09:09:54;;;;;;;6.20;2.85;;;;;;;;;;5039153;28;20291;-56
2022/01/21 09:12:20;;;;;;;6.68;3.03;;;;;;;;;;5042026;28;20116;-57
2022/01/21 09:14:47;;;;;;;9.20;3.33;;;;;;;;;;5045537;28;20569;-57
2022/01/21 09:17:13;;;;;;;7.95;3.05;;;;;;;;;;5043829;28;20546;-57
2022/01/21 09:19:39;;;;;;;7.13;3.22;;;;;;;;;;5042694;28;20407;-57
2022/01/21 09:22:05;;;;;;;5.55;2.45;;;;;;;;;;5046767;28;20029;-56
2022/01/21 09:24:33;;;;;;;5.93;2.50;;;;;;;;;;5047784;28;20508;-57
2022/01/21 09:27:00;;;;;;;5.93;2.70;;;;;;;;;;5045433;28;20036;-56
2022/01/21 09:29:27;;;;;;;4.53;2.53;;;;;;;;;;5046146;28;20539;-57
2022/01/21 09:31:54;;;;;;;5.60;2.97;;;;;;;;;;5044123;28;20040;-56
2022/01/21 09:34:21;;;;;;;4.68;2.50;;;;;;;;;;5045826;28;20032;-57
2022/01/21 09:36:47;;;;;;;4.85;2.55;;;;;;;;;;5045199;28;20029;-56
2022/01/21 09:39:13;;;;;;;7.18;2.90;;;;;;;;;;5041755;28;20098;-57
2022/01/21 09:41:42;;;;;;;5.60;3.03;;;;;;;;;;5045676;28;20033;-54
2022/01/21 09:44:11;;;;;;;9.60;4.93;;;;;;;;;;5044663;28;20028;-54
2022/01/21 09:46:42;;;;;;;12.07;4.65;;;;;;;;;;5041570;28;20079;-55
2022/01/21 09:49:25;;;;;;;9.75;4.03;;;;;;;;;;5044058;28;20028;-53
2022/01/21 09:51:59;;;;;;;6.43;3.05;;;;;;;;;;5045733;28;20025;-54
2022/01/21 09:54:27;;;;;;;7.22;3.00;;;;;;;;;;5045106;28;20111;-56
2022/01/21 09:56:55;;;;;;;7.85;2.83;;;;;;;;;;5044231;28;20075;-56
2022/01/21 09:59:22;;;;;;;6.47;2.78;;;;;;;;;;5042569;28;20048;-56
2022/01/21 10:01:50;;;;;;;6.07;2.80;;;;;;;;;;5038648;28;20500;-56
2022/01/21 10:04:18;;;;;;;6.40;2.88;;;;;;;;;;5040506;28;20037;-56
2022/01/21 10:06:46;;;;;;;6.78;3.08;;;;;;;;;;5041558;28;20037;-55
2022/01/21 10:09:15;;;;;;;6.72;2.95;;;;;;;;;;5046938;28;20029;-57
2022/01/21 10:11:48;;;;;;;6.78;2.80;;;;;;;;;;5049369;28;20037;-57
2022/01/21 10:14:14;;;;;;;4.63;2.53;;;;;;;;;;5049457;28;20020;-55
2022/01/21 10:16:43;;;;;;;6.07;3.15;;;;;;;;;;5049200;28;20037;-58
2022/01/21 10:19:11;;;;;;;6.40;2.80;;;;;;;;;;5054232;28;20032;-56
2022/01/21 10:21:38;;;;;;;4.43;2.47;;;;;;;;;;5046570;28;20381;-57
2022/01/21 10:24:12;;;;;;;4.88;2.55;;;;;;;;;;5047770;28;20044;-57
2022/01/21 10:26:38;;;;;;;;;;;;;;;;;;5051131;28;20392;-56
2022/01/21 10:29:07;;;;;;;3.95;2.20;;;;;;;;;;5049451;28;19913;-57
2022/01/21 10:31:33;;;;;;;6.70;2.40;;;;;;;;;;5051050;28;20493;-56
2022/01/21 10:34:04;;;;;;;8.95;3.03;;;;;;;;;;5050120;28;20055;-56
2022/01/21 10:36:34;;;;;;;4.43;2.88;;;;;;;;;;5047978;28;20025;-57
2022/01/21 10:39:11;;;;;;;6.97;2.90;;;;;;;;;;5041746;28;20052;-57
2022/01/21 10:41:40;;;;;;;4.80;2.25;;;;;;;;;;5048718;28;20021;-56
2022/01/21 10:44:06;;;;;;;3.65;2.60;;;;;;;;;;5050304;28;20040;-57
2022/01/21 10:46:33;;;;;;;3.60;2.00;;;;;;;;;;5050983;28;20108;-55
2022/01/21 10:49:06;;;;;;;4.03;2.20;;;;;;;;;;5049122;28;20029;-56
2022/01/21 10:51:34;;;;;;;6.00;2.10;;;;;;;;;;5047195;28;20195;-57
2022/01/21 10:54:11;;;;;;;4.05;1.65;;;;;;;;;;5040083;28;20037;-57
2022/01/21 10:56:37;;;;;;;3.72;1.85;;;;;;;;;;5049711;28;20025;-58
2022/01/21 10:59:03;;;;;;;3.08;1.60;;;;;;;;;;5036676;28;20052;-57
2022/01/21 11:01:30;;;;;;;3.25;1.77;;;;;;;;;;5039120;28;20033;-57
2022/01/21 11:04:05;;;;;;;2.90;1.90;;;;;;;;;;5049181;28;20033;-57
2022/01/21 11:06:46;;;;;;;5.32;1.80;;;;;;;;;;5046883;28;20032;-57
2022/01/21 11:09:12;;;;;;;3.30;1.70;;;;;;;;;;5046161;28;20116;-57
2022/01/21 11:11:38;;;;;;;5.13;1.90;;;;;;;;;;5045905;28;20437;-57
2022/01/21 11:14:12;;;;;;;2.80;1.50;;;;;;;;;;5050224;28;20041;-57
2022/01/21 11:16:40;;;;;;;3.13;1.60;;;;;;;;;;5047378;28;20113;-58
2022/01/21 11:19:13;;;;;;;3.45;1.42;;;;;;;;;;5045485;28;20476;-57
2022/01/21 11:21:41;;;;;;;3.17;1.50;;;;;;;;;;5049652;28;20033;-57
2022/01/21 11:24:07;;;;;;;3.72;1.38;;;;;;;;;;5047891;28;20033;-57
2022/01/21 11:26:33;;;;;;;4.70;1.70;;;;;;;;;;5057218;28;20037;-56
2022/01/21 11:29:01;;;;;;;3.08;1.75;;;;;;;;;;5049194;28;20032;-57
2022/01/21 11:31:28;;;;;;;3.17;1.67;;;;;;;;;;5049411;28;20048;-58
2022/01/21 11:33:54;;;;;;;3.50;1.73;;;;;;;;;;5046492;28;20401;-57
2022/01/21 11:36:21;;;;;;;3.08;1.70;;;;;;;;;;5047461;28;20025;-57
2022/01/21 11:38:51;;;;;;;4.25;1.70;;;;;;;;;;5044379;28;20629;-56
2022/01/21 11:41:17;;;;;;;4.28;1.88;;;;;;;;;;5046871;28;20402;-57
2022/01/21 11:43:50;;;;;;;5.30;2.03;;;;;;;;;;5048636;28;20037;-57
2022/01/21 11:46:20;;;;;;;4.03;1.80;;;;;;;;;;5049202;28;20516;-55
2022/01/21 11:48:54;;;;;;;3.50;1.83;;;;;;;;;;5044398;28;20538;-57
2022/01/21 11:51:26;;;;;;;6.25;2.90;;;;;;;;;;5048380;28;20048;-57
2022/01/21 11:53:53;;;;;;;9.82;3.28;;;;;;;;;;5048201;28;20017;-57
2022/01/21 11:56:36;;;;;;;7.93;2.95;;;;;;;;;;5048995;28;20028;-57
2022/01/21 11:59:02;;;;;;;7.93;2.65;;;;;;;;;;5046535;28;20025;-58
2022/01/21 12:01:32;;;;;;;5.53;2.85;;;;;;;;;;5049147;28;20029;-57
2022/01/21 12:04:00;;;;;;;5.07;1.90;;;;;;;;;;5048818;28;20083;-57
2022/01/21 12:06:33;;;;;;;4.13;1.90;;;;;;;;;;5048359;28;20029;-58
2022/01/21 12:09:02;;;;;;;2.80;1.98;;;;;;;;;;5046804;28;20128;-57
2022/01/21 12:11:31;;;;;;;5.22;2.15;;;;;;;;;;5046023;28;20021;-57
2022/01/21 12:13:57;;;;;;;3.58;1.77;;;;;;;;;;5048155;28;20078;-57
2022/01/21 12:16:55;;;;;;;2.38;1.60;;;;;;;;;;5048075;28;20029;-57
2022/01/21 12:19:36;;;;;;;4.50;2.00;;;;;;;;;;5048078;28;20021;-57
2022/01/21 12:22:12;;;;;;;5.43;2.35;;;;;;;;;;5040402;28;20033;-58
2022/01/21 12:25:08;;;;;;;5.65;2.13;;;;;;;;;;5042698;28;20488;-58
2022/01/21 12:27:35;;;;;;;5.25;1.80;;;;;;;;;;5025867;28;20065;-57
2022/01/21 12:30:23;;;;;;;2.63;1.55;;;;;;;;;;5045868;28;20495;-57
2022/01/21 12:32:53;;;;;;;4.15;1.73;;;;;;;;;;5043372;28;20035;-57
2022/01/21 12:35:20;;;;;;;4.47;2.15;;;;;;;;;;5047413;28;20039;-57
2022/01/21 12:39:05;;;;;;;5.32;1.90;;;;;;;;;;5048502;28;20090;-57
2022/01/21 12:40:50;;;;;;;4.65;2.30;;;;;;;;;;5034242;28;20033;-57
2022/01/21 12:43:36;;;;;;;3.33;1.95;;;;;;;;;;5047020;28;20151;-57
2022/01/21 12:46:14;;;;;;;4.22;2.17;;;;;;;;;;5042637;28;20028;-57
2022/01/21 12:48:40;;;;;;;6.65;1.90;;;;;;;;;;5046427;28;20064;-57
2022/01/21 12:51:15;;;;;;;4.82;1.92;;;;;;;;;;5047652;28;20044;-57
2022/01/21 12:55:55;;;;;;;;;;;;;;;;;;5047850;28;20037;-58
2022/01/21 12:56:28;;;;;;;3.45;1.65;;;;;;;;;;5042789;28;19931;-57
2022/01/21 12:58:55;;;;;;;3.85;1.75;;;;;;;;;;5046258;28;20083;-57
2022/01/21 13:01:22;;;;;;;3.70;1.85;;;;;;;;;;5046856;28;20053;-58
2022/01/21 13:03:59;;;;;;;3.38;1.60;;;;;;;;;;5043824;28;20520;-57
2022/01/21 13:06:42;;;;;;;2.70;1.58;;;;;;;;;;5046933;28;20082;-57
2022/01/21 13:09:09;;;;;;;3.17;1.35;;;;;;;;;;5044733;28;20041;-57
2022/01/21 13:11:40;;;;;;;2.03;1.17;;;;;;;;;;5046505;28;20424;-58
2022/01/21 13:14:24;;;;;;;2.80;1.15;;;;;;;;;;5049397;28;20139;-58
2022/01/21 13:16:55;;;;;;;5.95;2.30;;;;;;;;;;5066345;28;20036;-58
2022/01/21 13:19:22;;;;;;;2.80;1.50;;;;;;;;;;5046921;28;20028;-58
2022/01/21 13:21:49;;;;;;;5.57;1.60;;;;;;;;;;5043658;28;21063;-58
2022/01/21 13:24:26;;;;;;;3.97;1.58;;;;;;;;;;5046271;28;20025;-58
2022/01/21 13:26:53;;;;;;;2.75;1.85;;;;;;;;;;5046293;28;20031;-58
2022/01/21 13:29:19;;;;;;;3.65;1.58;;;;;;;;;;5046693;28;20182;-58
2022/01/21 13:31:51;;;;;;;1.95;1.30;;;;;;;;;;5046523;28;20621;-58
2022/01/21 13:34:33;;;;;;;3.00;1.40;;;;;;;;;;5046205;28;20500;-56
2022/01/21 13:37:00;;;;;;;2.58;1.58;;;;;;;;;;5039740;28;20040;-57
2022/01/21 13:39:32;;;;;;;3.58;1.45;;;;;;;;;;5046057;28;20125;-57
2022/01/21 13:42:03;;;;;;;2.63;1.50;;;;;;;;;;5047397;28;20442;-57
2022/01/21 13:44:32;;;;;;;3.45;1.95;;;;;;;;;;5040189;28;20033;-57
2022/01/21 13:47:00;;;;;;;3.22;1.50;;;;;;;;;;5043958;28;20036;-58
2022/01/21 13:49:26;;;;;;;2.33;1.40;;;;;;;;;;5044634;28;20057;-57
2022/01/21 13:52:06;;;;;;;2.30;1.58;;;;;;;;;;5044644;28;20033;-57
2022/01/21 13:54:34;;;;;;;3.33;1.65;;;;;;;;;;5044003;28;20040;-58
2022/01/21 13:57:01;;;;;;;4.25;1.42;;;;;;;;;;5044852;28;20025;-57
2022/01/21 13:59:29;;;;;;;3.40;1.67;;;;;;;;;;5035927;28;20587;-58
2022/01/21 14:02:05;;;;;;;3.80;1.95;;;;;;;;;;5038316;28;20065;-55
2022/01/21 14:04:32;;;;;;;4.45;2.00;;;;;;;;;;5038176;28;20033;-55
2022/01/21 14:06:58;;;;;;;6.63;2.17;;;;;;;;;;5043908;28;20044;-55
2022/01/21 14:09:24;;;;;;;3.97;1.85;;;;;;;;;;5045705;28;20029;-55
2022/01/21 14:11:50;;;;;;;4.10;2.20;;;;;;;;;;5040612;28;20104;-55
2022/01/21 14:14:17;;;;;;;2.47;1.60;;;;;;;;;;5045646;28;20840;-55
2022/01/21 14:16:47;;;;;;;3.08;1.25;;;;;;;;;;5054122;28;20103;-55
2022/01/21 14:19:14;;;;;;;3.60;1.17;;;;;;;;;;5043014;28;20032;-55
2022/01/21 14:21:42;;;;;;;2.78;1.50;;;;;;;;;;5039754;28;20031;-55
2022/01/21 14:24:10;;;;;;;3.08;1.35;;;;;;;;;;5045453;28;20021;-55
2022/01/21 14:26:44;;;;;;;3.42;1.83;;;;;;;;;;5044358;28;20178;-55
2022/01/21 14:29:11;;;;;;;4.63;1.20;;;;;;;;;;5038094;28;20033;-55
2022/01/21 14:31:38;;;;;;;3.45;1.42;;;;;;;;;;5025911;28;20037;-55
2022/01/21 14:34:22;;;;;;;2.38;1.33;;;;;;;;;;5037523;28;20133;-55
2022/01/21 14:37:00;;;;;;;3.33;1.52;;;;;;;;;;5044469;28;20040;-56
2022/01/21 14:39:26;;;;;;;5.22;1.35;;;;;;;;;;5045650;28;20021;-55
2022/01/21 14:41:54;;;;;;;2.00;1.10;;;;;;;;;;5043745;28;20074;-56
2022/01/21 14:44:37;;;;;;;2.30;1.20;;;;;;;;;;5044297;28;20033;-57
2022/01/21 14:47:11;;;;;;;3.17;1.35;;;;;;;;;;5025418;28;20068;-57
2022/01/21 14:49:37;;;;;;;;;;;;;;;;;;5035856;28;20068;-57
2022/01/21 14:54:49;;;;;;;3.80;1.42;;;;;;;;;;5041772;28;20040;-57
2022/01/21 14:57:15;;;;;;;4.47;1.40;;;;;;;;;;5047609;28;20459;-58
2022/01/21 14:59:51;;;;;;;3.63;1.63;;;;;;;;;;5047759;28;20036;-58
2022/01/21 15:02:27;;;;;;;3.75;1.38;;;;;;;;;;5046578;28;20025;-58
2022/01/21 15:04:53;;;;;;;3.58;1.30;;;;;;;;;;5047515;28;20558;-58
2022/01/21 15:07:25;;;;;;;2.67;1.42;;;;;;;;;;5026931;28;20521;-58
2022/01/21 15:09:52;;;;;;;2.65;1.00;;;;;;;;;;5033174;28;20078;-58
2022/01/21 15:15:12;;;;;;;3.83;1.20;;;;;;;;;;5048096;28;20087;-58
2022/01/21 15:17:38;;;;;;;2.53;1.30;;;;;;;;;;5047497;28;20033;-57
2022/01/21 15:20:04;;;;;;;3.60;1.55;;;;;;;;;;5045297;28;20492;-58
2022/01/21 15:22:30;;;;;;;4.50;1.52;;;;;;;;;;5048781;28;20048;-57
2022/01/21 15:24:59;;;;;;;1.70;1.15;;;;;;;;;;5047227;28;20621;-57
2022/01/21 15:27:25;;;;;;;2.97;1.20;;;;;;;;;;5059604;28;20108;-57
2022/01/21 15:29:53;;;;;;;4.10;1.60;;;;;;;;;;5046655;28;20120;-57
2022/01/21 15:32:19;;;;;;;3.15;1.38;;;;;;;;;;5046768;28;20091;-57
2022/01/21 15:34:45;;;;;;;3.35;1.23;;;;;;;;;;5041282;28;20039;-57
2022/01/21 15:37:13;;;;;;;2.75;1.20;;;;;;;;;;5046585;28;20098;-57
2022/01/21 15:39:39;;;;;;;2.95;1.35;;;;;;;;;;5056549;28;20020;-57
2022/01/21 15:42:05;;;;;;;5.00;1.67;;;;;;;;;;5068206;28;20052;-57
2022/01/21 15:44:31;;;;;;;2.83;1.60;;;;;;;;;;5049416;28;20033;-57
2022/01/21 15:46:58;;;;;;;3.85;1.40;;;;;;;;;;5048340;28;20530;-57
2022/01/21 15:49:26;;;;;;;2.75;1.30;;;;;;;;;;5047454;28;20040;-57
2022/01/21 15:51:53;;;;;;;4.65;1.13;;;;;;;;;;5046287;28;20154;-57